Time;durP1;ratioP1;P1;durP2;ratioP2;P2;SDS_P1;SDS_P2;PMS_P1;PMS_P2;Temp;Humidity;BMP_temperature;BMP_pressure;BME280_temperature;BME280_humidity;BME280_pressure;Samples;Min_cycle;Max_cycle;Signal;HPM_P1;HPM_P2
2023/10/08 00:00:49;;;;;;;3.23;1.33;;;;;;;;;;5115160;28;20442;-58
2023/10/08 00:03:17;;;;;;;1.80;1.10;;;;;;;;;;5115049;28;20533;-57
2023/10/08 00:05:45;;;;;;;5.50;1.53;;;;;;;;;;5114910;28;20446;-58
2023/10/08 00:08:16;;;;;;;3.23;1.60;;;;;;;;;;5114742;28;20442;-58
2023/10/08 00:10:44;;;;;;;4.87;1.43;;;;;;;;;;5114825;28;20933;-58
2023/10/08 00:13:12;;;;;;;3.80;1.40;;;;;;;;;;5114784;28;20457;-58
2023/10/08 00:15:41;;;;;;;4.00;1.37;;;;;;;;;;5114774;28;20442;-57
2023/10/08 00:18:11;;;;;;;4.17;1.80;;;;;;;;;;5114558;28;20477;-58
2023/10/08 00:20:47;;;;;;;2.40;1.23;;;;;;;;;;5114595;28;20847;-58
2023/10/08 00:23:17;;;;;;;2.70;1.30;;;;;;;;;;5114737;28;20441;-58
2023/10/08 00:25:47;;;;;;;2.93;1.50;;;;;;;;;;5114699;28;20452;-58
2023/10/08 00:28:14;;;;;;;4.00;1.50;;;;;;;;;;5114374;28;20470;-58
2023/10/08 00:30:42;;;;;;;3.40;1.70;;;;;;;;;;5114476;28;20446;-57
2023/10/08 00:33:11;;;;;;;1.87;1.47;;;;;;;;;;5114357;28;20445;-58
2023/10/08 00:35:40;;;;;;;5.53;1.67;;;;;;;;;;5114166;28;20521;-58
2023/10/08 00:38:08;;;;;;;6.47;2.30;;;;;;;;;;5114073;28;20476;-57
2023/10/08 00:40:40;;;;;;;5.90;2.70;;;;;;;;;;5114251;28;20453;-57
2023/10/08 00:43:10;;;;;;;4.10;2.37;;;;;;;;;;5114227;28;20446;-57
2023/10/08 00:45:43;;;;;;;3.87;2.10;;;;;;;;;;5113421;28;20450;-59
2023/10/08 00:48:11;;;;;;;4.80;2.07;;;;;;;;;;5114037;28;20502;-57
2023/10/08 00:50:43;;;;;;;4.30;2.53;;;;;;;;;;5114082;28;20442;-57
2023/10/08 00:53:17;;;;;;;5.63;2.70;;;;;;;;;;5114116;28;20529;-56
2023/10/08 00:55:53;;;;;;;7.40;3.50;;;;;;;;;;5113940;28;20446;-57
2023/10/08 00:58:24;;;;;;;4.07;2.67;;;;;;;;;;5113747;28;20481;-54
2023/10/08 01:00:52;;;;;;;3.40;3.10;;;;;;;;;;5113998;28;20449;-56
2023/10/08 01:03:20;;;;;;;6.33;2.87;;;;;;;;;;5113974;28;20488;-56
2023/10/08 01:05:47;;;;;;;3.67;2.90;;;;;;;;;;5113876;28;20499;-57
2023/10/08 01:08:19;;;;;;;3.30;2.57;;;;;;;;;;5113769;28;20467;-56
2023/10/08 01:10:48;;;;;;;5.60;2.63;;;;;;;;;;5113652;28;20481;-56
2023/10/08 01:13:19;;;;;;;5.07;2.90;;;;;;;;;;5113822;28;20873;-57
2023/10/08 01:15:49;;;;;;;2.77;2.57;;;;;;;;;;5113746;28;20469;-56
2023/10/08 01:18:25;;;;;;;2.87;2.33;;;;;;;;;;5113682;28;20504;-57
2023/10/08 01:20:52;;;;;;;2.80;2.50;;;;;;;;;;5113526;28;20442;-58
2023/10/08 01:23:22;;;;;;;7.43;2.70;;;;;;;;;;5113466;28;20446;-56
2023/10/08 01:25:52;;;;;;;3.87;2.00;;;;;;;;;;5113772;28;20533;-56
2023/10/08 01:28:25;;;;;;;5.87;2.20;;;;;;;;;;5113249;28;20980;-58
2023/10/08 01:30:53;;;;;;;2.07;1.67;;;;;;;;;;5113645;28;20835;-56
2023/10/08 01:33:22;;;;;;;5.07;2.40;;;;;;;;;;5113406;28;20812;-56
2023/10/08 01:35:49;;;;;;;5.70;2.20;;;;;;;;;;5113293;28;20946;-58
2023/10/08 01:38:22;;;;;;;3.20;2.00;;;;;;;;;;5113552;28;20473;-57
2023/10/08 01:40:51;;;;;;;4.40;1.90;;;;;;;;;;5113530;28;20487;-57
2023/10/08 01:43:18;;;;;;;2.30;1.70;;;;;;;;;;5113412;28;20446;-55
2023/10/08 01:45:48;;;;;;;2.37;2.17;;;;;;;;;;5113177;28;20785;-57
2023/10/08 01:48:20;;;;;;;4.07;1.90;;;;;;;;;;5113181;28;20445;-57
2023/10/08 01:50:47;;;;;;;4.80;2.27;;;;;;;;;;5113467;28;20445;-57
2023/10/08 01:53:15;;;;;;;9.13;3.07;;;;;;;;;;5113242;28;20928;-57
2023/10/08 01:55:53;;;;;;;3.43;1.90;;;;;;;;;;5113292;28;20473;-57
2023/10/08 01:58:23;;;;;;;4.70;1.60;;;;;;;;;;5116666;28;20828;-57
2023/10/08 02:00:52;;;;;;;7.53;1.90;;;;;;;;;;5117175;28;20451;-57
2023/10/08 02:03:19;;;;;;;7.13;2.73;;;;;;;;;;5117479;28;20854;-58
2023/10/08 02:05:47;;;;;;;4.23;2.20;;;;;;;;;;5117331;28;20448;-57
2023/10/08 02:08:14;;;;;;;3.43;1.83;;;;;;;;;;5117231;28;20441;-56
2023/10/08 02:10:42;;;;;;;4.70;2.03;;;;;;;;;;5117181;27;20488;-57
2023/10/08 02:13:09;;;;;;;2.97;1.37;;;;;;;;;;5116959;28;20454;-57
2023/10/08 02:15:38;;;;;;;8.33;2.53;;;;;;;;;;5117284;28;20445;-56
2023/10/08 02:18:06;;;;;;;6.20;1.97;;;;;;;;;;5117020;28;20473;-57
2023/10/08 02:20:33;;;;;;;5.03;1.63;;;;;;;;;;5116974;28;20438;-56
2023/10/08 02:23:00;;;;;;;5.73;2.23;;;;;;;;;;5116954;28;20524;-56
2023/10/08 02:25:27;;;;;;;4.40;1.80;;;;;;;;;;5116891;28;20828;-57
2023/10/08 02:27:54;;;;;;;4.40;2.17;;;;;;;;;;5116560;28;20438;-59
2023/10/08 02:30:21;;;;;;;5.50;1.67;;;;;;;;;;5117099;28;20452;-58
2023/10/08 02:32:49;;;;;;;2.90;1.50;;;;;;;;;;5116879;28;20441;-57
2023/10/08 02:35:16;;;;;;;3.60;1.90;;;;;;;;;;5116768;28;20484;-58
2023/10/08 02:37:45;;;;;;;6.43;2.00;;;;;;;;;;5116679;28;20496;-59
2023/10/08 02:40:19;;;;;;;3.40;1.80;;;;;;;;;;5116583;28;20437;-60
2023/10/08 02:42:46;;;;;;;3.60;1.67;;;;;;;;;;5116735;28;20464;-59
2023/10/08 02:45:13;;;;;;;2.30;1.23;;;;;;;;;;5116779;28;20517;-58
2023/10/08 02:47:42;;;;;;;3.10;1.50;;;;;;;;;;5116501;28;20452;-59
2023/10/08 02:50:11;;;;;;;9.37;1.90;;;;;;;;;;5116437;28;20441;-59
2023/10/08 02:52:38;;;;;;;3.20;1.93;;;;;;;;;;5116336;28;20445;-57
2023/10/08 02:55:18;;;;;;;5.67;2.43;;;;;;;;;;5116207;28;20528;-59
2023/10/08 02:57:45;;;;;;;3.47;1.60;;;;;;;;;;5116170;28;20924;-59
2023/10/08 03:00:13;;;;;;;4.57;1.80;;;;;;;;;;5116075;28;20971;-59
2023/10/08 03:02:40;;;;;;;8.83;2.73;;;;;;;;;;5116209;28;20450;-59
2023/10/08 03:05:13;;;;;;;4.63;2.60;;;;;;;;;;5116067;28;20494;-59
2023/10/08 03:07:41;;;;;;;4.17;2.30;;;;;;;;;;5116232;28;20446;-58
2023/10/08 03:10:18;;;;;;;8.20;2.47;;;;;;;;;;5115469;28;20536;-60
2023/10/08 03:12:46;;;;;;;6.23;2.20;;;;;;;;;;5116047;28;20961;-59
2023/10/08 03:15:13;;;;;;;5.93;2.10;;;;;;;;;;5115847;28;20441;-59
2023/10/08 03:17:48;;;;;;;3.90;2.20;;;;;;;;;;5115938;28;20528;-59
2023/10/08 03:20:29;;;;;;;5.90;2.40;;;;;;;;;;5115973;28;20488;-57
2023/10/08 03:22:58;;;;;;;8.43;2.33;;;;;;;;;;5115910;28;20532;-58
2023/10/08 03:25:26;;;;;;;4.10;2.40;;;;;;;;;;5115822;28;20528;-57
2023/10/08 03:27:54;;;;;;;5.10;2.23;;;;;;;;;;5115448;28;20880;-58
2023/10/08 03:30:21;;;;;;;5.93;2.27;;;;;;;;;;5115502;28;20454;-58
2023/10/08 03:32:54;;;;;;;4.27;2.50;;;;;;;;;;5115569;28;20932;-56
2023/10/08 03:35:27;;;;;;;5.30;1.60;;;;;;;;;;5115627;28;20495;-59
2023/10/08 03:38:17;;;;;;;10.90;3.50;;;;;;;;;;5115627;28;20446;-58
2023/10/08 03:40:43;;;;;;;6.00;2.40;;;;;;;;;;5115262;28;20475;-58
2023/10/08 03:43:19;;;;;;;6.93;2.17;;;;;;;;;;5115317;28;20449;-58
2023/10/08 03:45:51;;;;;;;8.50;2.30;;;;;;;;;;5115550;28;20438;-59
2023/10/08 03:48:22;;;;;;;2.87;2.20;;;;;;;;;;5115361;28;20797;-59
2023/10/08 03:50:56;;;;;;;2.40;2.20;;;;;;;;;;5115315;28;20441;-58
2023/10/08 03:53:24;;;;;;;5.27;2.30;;;;;;;;;;5115113;28;20437;-59
2023/10/08 03:55:55;;;;;;;3.80;2.17;;;;;;;;;;5115257;28;20438;-56
2023/10/08 03:58:29;;;;;;;7.00;2.27;;;;;;;;;;5115055;28;20491;-58
2023/10/08 04:01:08;;;;;;;4.40;2.37;;;;;;;;;;5115130;28;20807;-59
2023/10/08 04:03:51;;;;;;;4.80;1.93;;;;;;;;;;5114947;28;20452;-59
2023/10/08 04:06:22;;;;;;;6.47;2.47;;;;;;;;;;5115140;28;20831;-58
2023/10/08 04:09:01;;;;;;;5.03;1.97;;;;;;;;;;5114928;28;20449;-56
2023/10/08 04:11:32;;;;;;;7.23;1.90;;;;;;;;;;5114927;28;20459;-57
2023/10/08 04:14:00;;;;;;;5.13;2.40;;;;;;;;;;5114707;28;20441;-58
2023/10/08 04:16:28;;;;;;;7.77;1.93;;;;;;;;;;5114573;28;20988;-57
2023/10/08 04:18:55;;;;;;;4.13;1.90;;;;;;;;;;5114700;28;20476;-60
2023/10/08 04:21:27;;;;;;;1.63;1.53;;;;;;;;;;5113630;28;20445;-56
2023/10/08 04:23:54;;;;;;;3.90;2.07;;;;;;;;;;5114511;28;20801;-57
2023/10/08 04:26:23;;;;;;;5.00;2.00;;;;;;;;;;5114454;28;20448;-57
2023/10/08 04:28:54;;;;;;;5.27;1.97;;;;;;;;;;5114135;28;21019;-59
2023/10/08 04:31:24;;;;;;;3.80;2.27;;;;;;;;;;5114588;28;20436;-59
2023/10/08 04:33:52;;;;;;;7.40;2.37;;;;;;;;;;5114433;28;20448;-56
2023/10/08 04:36:19;;;;;;;4.57;2.33;;;;;;;;;;5114350;28;20445;-59
2023/10/08 04:38:47;;;;;;;6.50;2.37;;;;;;;;;;5114193;28;20473;-59
2023/10/08 04:41:18;;;;;;;5.30;2.00;;;;;;;;;;5114126;28;20986;-59
2023/10/08 04:43:45;;;;;;;7.20;2.43;;;;;;;;;;5114165;28;20920;-60
2023/10/08 04:46:33;;;;;;;2.63;2.10;;;;;;;;;;5114244;28;20477;-58
2023/10/08 04:49:05;;;;;;;4.50;2.10;;;;;;;;;;5114137;28;20450;-60
2023/10/08 04:51:34;;;;;;;6.07;2.40;;;;;;;;;;5113985;28;20442;-60
2023/10/08 04:54:04;;;;;;;2.97;2.10;;;;;;;;;;5114135;28;20445;-58
2023/10/08 04:56:33;;;;;;;4.53;2.40;;;;;;;;;;5113906;28;20928;-59
2023/10/08 04:58:59;;;;;;;5.30;1.90;;;;;;;;;;5113902;28;20505;-59
2023/10/08 05:01:40;;;;;;;4.03;2.10;;;;;;;;;;5113931;28;21004;-59
2023/10/08 05:04:23;;;;;;;3.80;2.17;;;;;;;;;;5113837;28;20503;-58
2023/10/08 05:07:16;;;;;;;8.83;3.70;;;;;;;;;;5113991;28;20533;-58
2023/10/08 05:09:51;;;;;;;3.27;2.03;;;;;;;;;;5113797;28;20524;-58
2023/10/08 05:12:34;;;;;;;5.17;1.93;;;;;;;;;;5113701;28;20491;-59
2023/10/08 05:15:21;;;;;;;3.57;1.60;;;;;;;;;;5113899;28;20448;-59
2023/10/08 05:18:12;;;;;;;5.37;2.27;;;;;;;;;;5113713;28;20445;-59
2023/10/08 05:20:59;;;;;;;5.83;2.37;;;;;;;;;;5113456;28;20591;-59
2023/10/08 05:26:20;;;;;;;8.90;2.30;;;;;;;;;;5113583;28;20493;-59
2023/10/08 05:29:00;;;;;;;7.10;2.57;;;;;;;;;;5113300;28;20518;-59
2023/10/08 05:31:46;;;;;;;7.80;2.77;;;;;;;;;;5113362;28;20441;-60
2023/10/08 05:34:22;;;;;;;5.90;2.40;;;;;;;;;;5113523;28;20477;-60
2023/10/08 05:37:14;;;;;;;3.53;2.07;;;;;;;;;;5113414;28;20449;-59
2023/10/08 05:39:43;;;;;;;6.70;2.13;;;;;;;;;;5113151;28;20517;-58
2023/10/08 05:42:19;;;;;;;4.27;2.10;;;;;;;;;;5113463;28;20472;-58
2023/10/08 05:44:50;;;;;;;2.57;2.23;;;;;;;;;;5113463;28;20445;-58
2023/10/08 05:47:38;;;;;;;4.67;2.90;;;;;;;;;;5113386;28;20453;-58
2023/10/08 05:53:01;;;;;;;4.23;1.87;;;;;;;;;;5113353;28;20947;-58
2023/10/08 05:55:34;;;;;;;4.70;2.30;;;;;;;;;;5113295;28;20450;-58
2023/10/08 05:58:13;;;;;;;5.80;2.33;;;;;;;;;;5113244;28;20481;-59
2023/10/08 06:01:01;;;;;;;6.27;2.57;;;;;;;;;;5112981;28;20484;-59
2023/10/08 06:03:36;;;;;;;7.20;2.50;;;;;;;;;;5113242;28;20446;-59
2023/10/08 06:09:21;;;;;;;2.80;2.17;;;;;;;;;;5131300;27;20506;-57
2023/10/08 06:12:06;;;;;;;2.00;1.80;;;;;;;;;;5110723;28;20534;-57
2023/10/08 06:14:52;;;;;;;4.40;2.00;;;;;;;;;;5110763;28;20514;-58
2023/10/08 06:17:23;;;;;;;3.33;1.97;;;;;;;;;;5110845;28;20437;-57
2023/10/08 06:19:52;;;;;;;3.97;1.83;;;;;;;;;;5110734;28;20445;-58
2023/10/08 06:22:23;;;;;;;7.93;2.23;;;;;;;;;;5110651;28;20806;-56
2023/10/08 06:25:15;;;;;;;7.00;2.40;;;;;;;;;;5110581;28;20506;-58
2023/10/08 06:27:39;;;;;;;3.13;1.90;;;;;;;;;;5110241;28;20473;-56
2023/10/08 06:30:16;;;;;;;4.43;2.40;;;;;;;;;;5110462;28;20847;-57
2023/10/08 06:32:44;;;;;;;6.90;2.30;;;;;;;;;;5110411;28;20639;-57
2023/10/08 06:35:17;;;;;;;4.87;2.70;;;;;;;;;;5110205;28;20960;-57
2023/10/08 06:37:44;;;;;;;5.67;1.83;;;;;;;;;;5110296;28;20492;-57
2023/10/08 06:40:40;;;;;;;6.03;2.20;;;;;;;;;;5110142;28;20446;-57
2023/10/08 06:43:03;;;;;;;8.90;2.70;;;;;;;;;;5110115;28;21023;-57
2023/10/08 06:45:30;;;;;;;4.03;2.13;;;;;;;;;;5110062;28;20442;-55
2023/10/08 06:47:58;;;;;;;2.90;1.67;;;;;;;;;;5110362;28;20488;-57
2023/10/08 06:50:25;;;;;;;3.70;1.83;;;;;;;;;;5109851;28;20835;-54
2023/10/08 06:52:51;;;;;;;2.80;1.63;;;;;;;;;;5110093;28;20545;-57
2023/10/08 06:55:24;;;;;;;2.53;1.70;;;;;;;;;;5110040;28;20551;-57
2023/10/08 06:57:51;;;;;;;2.97;1.33;;;;;;;;;;5110033;28;20450;-57
2023/10/08 07:00:38;;;;;;;6.37;2.33;;;;;;;;;;5109956;28;20452;-57
2023/10/08 07:03:06;;;;;;;5.17;1.77;;;;;;;;;;5109815;28;20443;-57
2023/10/08 07:05:36;;;;;;;2.17;1.40;;;;;;;;;;5109965;28;20471;-56
2023/10/08 07:08:06;;;;;;;4.20;1.60;;;;;;;;;;5109526;28;20477;-57
2023/10/08 07:10:35;;;;;;;5.40;1.90;;;;;;;;;;5109748;28;20564;-58
2023/10/08 07:13:03;;;;;;;4.40;2.10;;;;;;;;;;5109535;28;20450;-57
2023/10/08 07:15:30;;;;;;;4.03;2.00;;;;;;;;;;5109462;28;20464;-57
2023/10/08 07:17:59;;;;;;;4.50;1.70;;;;;;;;;;5109637;28;20514;-57
2023/10/08 07:20:26;;;;;;;1.70;1.60;;;;;;;;;;5095602;28;20929;-57
2023/10/08 07:22:54;;;;;;;4.03;1.27;;;;;;;;;;5095920;28;20466;-57
2023/10/08 07:25:23;;;;;;;3.20;1.57;;;;;;;;;;5095868;28;20454;-58
2023/10/08 07:27:52;;;;;;;4.13;1.50;;;;;;;;;;5095614;28;20860;-57
2023/10/08 07:30:26;;;;;;;4.03;1.57;;;;;;;;;;5095915;28;20549;-57
2023/10/08 07:32:55;;;;;;;1.53;1.20;;;;;;;;;;5095742;28;20441;-57
2023/10/08 07:35:29;;;;;;;2.23;1.20;;;;;;;;;;5095699;28;20455;-57
2023/10/08 07:37:56;;;;;;;3.60;1.70;;;;;;;;;;5095530;28;20449;-56
2023/10/08 07:40:27;;;;;;;2.50;1.13;;;;;;;;;;5095483;28;20466;-58
2023/10/08 07:42:56;;;;;;;1.73;1.00;;;;;;;;;;5095671;28;20797;-58
2023/10/08 07:45:22;;;;;;;2.30;1.20;;;;;;;;;;5095589;28;20797;-58
2023/10/08 07:47:49;;;;;;;2.07;1.10;;;;;;;;;;5095431;28;20479;-57
2023/10/08 07:50:16;;;;;;;3.67;1.37;;;;;;;;;;5095309;28;20454;-57
2023/10/08 07:52:44;;;;;;;3.07;1.40;;;;;;;;;;5095203;28;20471;-57
2023/10/08 07:55:17;;;;;;;4.10;1.30;;;;;;;;;;5095382;28;20446;-57
2023/10/08 07:57:44;;;;;;;2.27;1.20;;;;;;;;;;5095348;28;20513;-57
2023/10/08 08:00:22;;;;;;;3.17;1.27;;;;;;;;;;5095229;28;20442;-57
2023/10/08 08:02:50;;;;;;;2.43;1.30;;;;;;;;;;5095155;28;20438;-57
2023/10/08 08:05:17;;;;;;;2.40;1.97;;;;;;;;;;5094978;28;20446;-57
2023/10/08 08:07:45;;;;;;;4.30;1.37;;;;;;;;;;5094670;28;20509;-58
2023/10/08 08:10:14;;;;;;;3.57;1.33;;;;;;;;;;5095065;28;20450;-57
2023/10/08 08:12:41;;;;;;;2.30;1.30;;;;;;;;;;5094987;28;20446;-57
2023/10/08 08:15:15;;;;;;;1.50;1.10;;;;;;;;;;5094911;28;20450;-57
2023/10/08 08:17:43;;;;;;;2.23;1.10;;;;;;;;;;5094747;28;20507;-58
2023/10/08 08:20:18;;;;;;;3.93;1.50;;;;;;;;;;5094686;28;20545;-58
2023/10/08 08:22:49;;;;;;;3.53;1.60;;;;;;;;;;5094788;28;20469;-58
2023/10/08 08:25:26;;;;;;;2.40;1.40;;;;;;;;;;5094467;28;20965;-57
2023/10/08 08:27:53;;;;;;;1.53;1.43;;;;;;;;;;5094543;28;20469;-58
2023/10/08 08:30:20;;;;;;;2.23;1.07;;;;;;;;;;5093666;28;20474;-58
2023/10/08 08:32:50;;;;;;;1.83;1.10;;;;;;;;;;5094403;28;20489;-58
2023/10/08 08:35:17;;;;;;;3.00;1.20;;;;;;;;;;5094612;28;20533;-58
2023/10/08 08:37:46;;;;;;;1.70;1.10;;;;;;;;;;5094243;28;20454;-58
2023/10/08 08:40:17;;;;;;;3.53;1.00;;;;;;;;;;5094400;28;20593;-58
2023/10/08 08:42:46;;;;;;;1.23;1.07;;;;;;;;;;5094319;28;20948;-59
2023/10/08 08:45:14;;;;;;;1.53;1.10;;;;;;;;;;5094387;28;20458;-58
2023/10/08 08:47:41;;;;;;;1.20;1.10;;;;;;;;;;5094061;28;20533;-58
2023/10/08 08:50:11;;;;;;;1.17;1.00;;;;;;;;;;5094220;28;20787;-58
2023/10/08 08:52:38;;;;;;;3.53;1.37;;;;;;;;;;5094172;28;20449;-58
2023/10/08 08:55:09;;;;;;;1.30;0.93;;;;;;;;;;5094063;28;21007;-57
2023/10/08 08:57:39;;;;;;;2.20;0.93;;;;;;;;;;5093988;28;20443;-57
2023/10/08 09:00:12;;;;;;;1.63;1.00;;;;;;;;;;5094081;28;20487;-58
2023/10/08 09:02:39;;;;;;;0.97;0.80;;;;;;;;;;5094064;28;20529;-56
2023/10/08 09:05:13;;;;;;;0.80;0.80;;;;;;;;;;5093981;28;20456;-58
2023/10/08 09:07:55;;;;;;;2.23;1.13;;;;;;;;;;5093354;28;20474;-58
2023/10/08 09:10:26;;;;;;;1.60;0.97;;;;;;;;;;5093958;28;20447;-58
2023/10/08 09:12:53;;;;;;;1.33;1.00;;;;;;;;;;5093902;28;20492;-56
2023/10/08 09:15:22;;;;;;;2.23;0.83;;;;;;;;;;5093685;28;20447;-58
2023/10/08 09:17:49;;;;;;;1.77;1.03;;;;;;;;;;5093573;28;20453;-58
2023/10/08 09:20:20;;;;;;;0.83;0.83;;;;;;;;;;5093523;28;20504;-58
2023/10/08 09:22:48;;;;;;;1.10;0.87;;;;;;;;;;5093740;28;20534;-57
2023/10/08 09:25:23;;;;;;;1.33;0.57;;;;;;;;;;5093662;28;20451;-58
2023/10/08 09:27:53;;;;;;;1.80;1.30;;;;;;;;;;5093350;28;20446;-58
2023/10/08 09:30:21;;;;;;;1.20;0.80;;;;;;;;;;5093469;28;21016;-58
2023/10/08 09:32:49;;;;;;;1.10;0.90;;;;;;;;;;5093262;28;20855;-58
2023/10/08 09:35:16;;;;;;;2.33;0.90;;;;;;;;;;5093724;28;20445;-58
2023/10/08 09:37:44;;;;;;;1.20;0.67;;;;;;;;;;5093426;28;20675;-57
2023/10/08 09:40:12;;;;;;;2.00;0.80;;;;;;;;;;5093372;28;20965;-58
2023/10/08 09:42:40;;;;;;;1.63;0.63;;;;;;;;;;5093057;28;20443;-57
2023/10/08 09:45:08;;;;;;;1.30;0.70;;;;;;;;;;5093219;28;20446;-58
2023/10/08 09:47:37;;;;;;;0.90;0.80;;;;;;;;;;5093037;28;20446;-57
2023/10/08 09:50:07;;;;;;;1.30;1.00;;;;;;;;;;5093252;28;20489;-58
2023/10/08 09:52:35;;;;;;;2.70;0.83;;;;;;;;;;5093152;28;20447;-58
2023/10/08 09:55:07;;;;;;;0.90;0.70;;;;;;;;;;5093067;28;20443;-58
2023/10/08 09:57:34;;;;;;;1.13;0.90;;;;;;;;;;5093085;28;20962;-57
2023/10/08 10:00:03;;;;;;;1.50;0.80;;;;;;;;;;5092949;28;20454;-58
2023/10/08 10:02:31;;;;;;;0.70;0.60;;;;;;;;;;5093130;28;20483;-58
2023/10/08 10:04:58;;;;;;;1.33;0.60;;;;;;;;;;5093246;28;20442;-58
2023/10/08 10:07:28;;;;;;;0.70;0.60;;;;;;;;;;5092812;28;20549;-58
2023/10/08 10:09:56;;;;;;;0.83;0.70;;;;;;;;;;5092909;28;20489;-57
2023/10/08 10:12:26;;;;;;;1.33;0.70;;;;;;;;;;5092757;28;20474;-58
2023/10/08 10:14:55;;;;;;;1.80;0.93;;;;;;;;;;5092982;28;20446;-58
2023/10/08 10:17:25;;;;;;;1.73;0.80;;;;;;;;;;5092893;28;20449;-58
2023/10/08 10:19:54;;;;;;;1.40;0.67;;;;;;;;;;5092888;28;20450;-58
2023/10/08 10:22:32;;;;;;;0.80;0.67;;;;;;;;;;5092742;28;20453;-58
2023/10/08 10:25:00;;;;;;;2.10;0.70;;;;;;;;;;5092690;28;20450;-58
2023/10/08 10:27:27;;;;;;;1.20;0.77;;;;;;;;;;5092872;28;20503;-58
2023/10/08 10:30:04;;;;;;;1.17;1.00;;;;;;;;;;5092839;28;20482;-58
2023/10/08 10:32:33;;;;;;;2.13;1.03;;;;;;;;;;5092852;28;20442;-58
2023/10/08 10:35:03;;;;;;;0.90;0.73;;;;;;;;;;5092660;28;20533;-58
2023/10/08 10:37:41;;;;;;;0.80;0.80;;;;;;;;;;5092815;28;20439;-58
2023/10/08 10:40:12;;;;;;;1.03;0.80;;;;;;;;;;5092820;28;20840;-58
2023/10/08 10:42:42;;;;;;;0.80;0.77;;;;;;;;;;5092760;28;20447;-58
2023/10/08 10:45:35;;;;;;;2.10;0.80;;;;;;;;;;5092690;28;20434;-58
2023/10/08 10:48:13;;;;;;;1.50;0.80;;;;;;;;;;5092344;28;20438;-58
2023/10/08 10:50:48;;;;;;;2.40;0.93;;;;;;;;;;5092674;28;20442;-57
2023/10/08 10:53:16;;;;;;;1.20;0.70;;;;;;;;;;5092629;28;20454;-58
2023/10/08 10:55:58;;;;;;;2.00;1.00;;;;;;;;;;5096049;28;20797;-58
2023/10/08 10:58:26;;;;;;;1.33;0.83;;;;;;;;;;5096215;28;20805;-57
2023/10/08 11:00:59;;;;;;;1.10;0.80;;;;;;;;;;5096475;28;20536;-58
2023/10/08 11:03:29;;;;;;;1.03;0.80;;;;;;;;;;5096369;28;20537;-58
2023/10/08 11:06:05;;;;;;;1.00;0.60;;;;;;;;;;5096218;28;20453;-58
2023/10/08 11:08:34;;;;;;;0.80;0.70;;;;;;;;;;5095754;28;20914;-57
2023/10/08 11:11:05;;;;;;;1.10;0.83;;;;;;;;;;5096255;28;20955;-57
2023/10/08 11:13:37;;;;;;;1.50;0.80;;;;;;;;;;5095861;28;20946;-58
2023/10/08 11:16:07;;;;;;;1.37;0.70;;;;;;;;;;5096071;28;20519;-58
2023/10/08 11:18:35;;;;;;;1.57;0.90;;;;;;;;;;5095878;28;20531;-58
2023/10/08 11:21:15;;;;;;;0.80;0.80;;;;;;;;;;5095835;28;20538;-59
2023/10/08 11:23:52;;;;;;;2.30;0.60;;;;;;;;;;5096002;28;20442;-58
2023/10/08 11:26:19;;;;;;;1.07;0.70;;;;;;;;;;5095730;28;20924;-58
2023/10/08 11:28:47;;;;;;;0.90;0.70;;;;;;;;;;5095704;28;20474;-58
2023/10/08 11:31:15;;;;;;;0.83;0.70;;;;;;;;;;5095739;28;20470;-58
2023/10/08 11:33:53;;;;;;;0.80;0.70;;;;;;;;;;5095483;28;20491;-58
2023/10/08 11:36:25;;;;;;;1.20;0.70;;;;;;;;;;5095687;28;20447;-58
2023/10/08 11:38:53;;;;;;;1.53;1.10;;;;;;;;;;5095466;28;20624;-58
2023/10/08 11:41:27;;;;;;;1.23;0.73;;;;;;;;;;5095561;28;20499;-58
2023/10/08 11:43:56;;;;;;;1.00;0.70;;;;;;;;;;5095436;28;20972;-58
2023/10/08 11:46:27;;;;;;;1.33;0.70;;;;;;;;;;5095573;28;20470;-58
2023/10/08 11:48:58;;;;;;;1.97;0.80;;;;;;;;;;5095420;28;20496;-58
2023/10/08 11:51:25;;;;;;;1.33;0.80;;;;;;;;;;5095320;28;20447;-58
2023/10/08 11:53:53;;;;;;;1.23;0.90;;;;;;;;;;5095294;28;20442;-58
2023/10/08 11:56:23;;;;;;;0.90;0.80;;;;;;;;;;5095230;28;20806;-58
2023/10/08 11:58:51;;;;;;;1.13;1.00;;;;;;;;;;5094964;28;20937;-58
2023/10/08 12:01:18;;;;;;;1.00;0.80;;;;;;;;;;5095259;28;20435;-58
2023/10/08 12:03:45;;;;;;;0.97;0.77;;;;;;;;;;5095066;28;20504;-58
2023/10/08 12:06:18;;;;;;;1.20;0.80;;;;;;;;;;5094871;28;20546;-58
2023/10/08 12:08:46;;;;;;;1.30;1.03;;;;;;;;;;5094712;28;20471;-58
2023/10/08 12:11:13;;;;;;;1.00;0.80;;;;;;;;;;5094630;28;20783;-58
2023/10/08 12:13:44;;;;;;;3.43;1.03;;;;;;;;;;5094978;28;20541;-58
2023/10/08 12:16:18;;;;;;;1.27;0.80;;;;;;;;;;5094880;28;20461;-58
2023/10/08 12:18:48;;;;;;;0.77;0.60;;;;;;;;;;5094775;28;20542;-58
2023/10/08 12:21:17;;;;;;;1.00;0.90;;;;;;;;;;5094647;28;20493;-58
2023/10/08 12:23:46;;;;;;;1.00;0.90;;;;;;;;;;5094511;28;20449;-58
2023/10/08 12:26:15;;;;;;;2.10;0.90;;;;;;;;;;5094791;28;20496;-58
2023/10/08 12:28:44;;;;;;;0.90;0.70;;;;;;;;;;5094564;28;20801;-58
2023/10/08 12:31:11;;;;;;;1.13;0.70;;;;;;;;;;5094544;28;20456;-58
2023/10/08 12:33:40;;;;;;;1.27;0.90;;;;;;;;;;5094454;28;20449;-58
2023/10/08 12:36:11;;;;;;;1.20;1.10;;;;;;;;;;5094318;28;20529;-58
2023/10/08 12:38:41;;;;;;;0.80;0.70;;;;;;;;;;5094563;28;20446;-58
2023/10/08 12:41:14;;;;;;;0.90;0.80;;;;;;;;;;5094382;28;20490;-58
2023/10/08 12:43:44;;;;;;;0.70;0.60;;;;;;;;;;5094392;28;20447;-58
2023/10/08 12:46:17;;;;;;;2.70;1.20;;;;;;;;;;5094343;28;20443;-58
2023/10/08 12:48:47;;;;;;;1.10;0.80;;;;;;;;;;5094087;28;20516;-58
2023/10/08 12:51:14;;;;;;;1.00;0.90;;;;;;;;;;5094196;28;20503;-58
2023/10/08 12:53:50;;;;;;;1.70;0.70;;;;;;;;;;5094200;28;20438;-58
2023/10/08 12:56:21;;;;;;;1.00;0.80;;;;;;;;;;5094090;28;20446;-58
2023/10/08 12:58:48;;;;;;;0.80;0.77;;;;;;;;;;5093877;28;20783;-58
2023/10/08 13:01:17;;;;;;;0.80;0.70;;;;;;;;;;5093803;28;20850;-58
2023/10/08 13:03:47;;;;;;;1.57;0.70;;;;;;;;;;5094035;28;20530;-58
2023/10/08 13:06:21;;;;;;;1.37;0.87;;;;;;;;;;5094342;28;20794;-58
2023/10/08 13:08:51;;;;;;;1.67;0.90;;;;;;;;;;5093629;28;20469;-57
2023/10/08 13:11:22;;;;;;;1.07;0.73;;;;;;;;;;5094166;28;20902;-58
2023/10/08 13:13:49;;;;;;;1.50;0.90;;;;;;;;;;5093664;28;20463;-58
2023/10/08 13:16:16;;;;;;;1.30;0.80;;;;;;;;;;5093501;28;20533;-58
2023/10/08 13:18:43;;;;;;;1.60;0.93;;;;;;;;;;5093480;28;20545;-58
2023/10/08 13:21:12;;;;;;;1.03;0.73;;;;;;;;;;5093566;28;20515;-57
2023/10/08 13:23:39;;;;;;;0.97;0.87;;;;;;;;;;5093550;28;20544;-58
2023/10/08 13:26:07;;;;;;;1.23;0.90;;;;;;;;;;5093349;28;20443;-58
2023/10/08 13:28:35;;;;;;;1.17;0.80;;;;;;;;;;5093580;28;20500;-58
2023/10/08 13:31:09;;;;;;;1.10;0.77;;;;;;;;;;5093408;28;20585;-58
2023/10/08 13:33:38;;;;;;;1.33;0.73;;;;;;;;;;5093379;28;20508;-58
2023/10/08 13:36:08;;;;;;;1.30;0.67;;;;;;;;;;5093214;28;20960;-58
2023/10/08 13:38:34;;;;;;;1.73;0.73;;;;;;;;;;5093077;28;20818;-58
2023/10/08 13:41:06;;;;;;;1.30;0.93;;;;;;;;;;5093474;28;20443;-58
2023/10/08 13:43:35;;;;;;;1.53;0.80;;;;;;;;;;5093324;28;20447;-58
2023/10/08 13:46:06;;;;;;;2.23;1.10;;;;;;;;;;5093015;28;20442;-58
2023/10/08 13:48:35;;;;;;;2.73;1.10;;;;;;;;;;5093241;28;20449;-57
2023/10/08 13:51:03;;;;;;;1.10;0.80;;;;;;;;;;5092951;28;20478;-59
2023/10/08 13:53:30;;;;;;;2.53;1.23;;;;;;;;;;5092922;28;20449;-58
2023/10/08 13:56:00;;;;;;;1.07;0.97;;;;;;;;;;5093158;28;20478;-58
2023/10/08 13:58:28;;;;;;;4.50;0.73;;;;;;;;;;5092926;28;21008;-58
2023/10/08 14:00:56;;;;;;;1.43;0.80;;;;;;;;;;5092936;28;20837;-58
2023/10/08 14:03:24;;;;;;;3.27;0.97;;;;;;;;;;5092951;28;20449;-59
2023/10/08 14:05:51;;;;;;;1.20;0.80;;;;;;;;;;5092851;28;20451;-59
2023/10/08 14:08:18;;;;;;;1.90;0.80;;;;;;;;;;5092784;28;20476;-59
2023/10/08 14:10:47;;;;;;;1.00;0.70;;;;;;;;;;5092897;28;20482;-58
2023/10/08 14:13:14;;;;;;;3.73;0.80;;;;;;;;;;5092896;28;20465;-58
2023/10/08 14:15:46;;;;;;;1.33;0.90;;;;;;;;;;5092824;28;20443;-58
2023/10/08 14:18:16;;;;;;;0.80;0.70;;;;;;;;;;5092715;28;20503;-58
2023/10/08 14:20:46;;;;;;;1.53;0.80;;;;;;;;;;5093012;28;20449;-59
2023/10/08 14:23:16;;;;;;;0.80;0.70;;;;;;;;;;5093139;28;20468;-58
2023/10/08 14:25:44;;;;;;;1.00;0.90;;;;;;;;;;5092787;28;20934;-59
2023/10/08 14:28:21;;;;;;;2.63;0.80;;;;;;;;;;5092670;28;20443;-58
2023/10/08 14:30:52;;;;;;;0.80;0.80;;;;;;;;;;5096483;28;20536;-58
2023/10/08 14:33:26;;;;;;;2.07;0.90;;;;;;;;;;5096808;28;20473;-58
2023/10/08 14:44:07;;;;;;;1.00;0.67;;;;;;;;;;5096672;28;20442;-58
2023/10/08 14:46:36;;;;;;;1.00;0.90;;;;;;;;;;5096636;28;20818;-59
2023/10/08 14:49:09;;;;;;;1.20;0.73;;;;;;;;;;5096417;28;20967;-58
2023/10/08 14:51:36;;;;;;;1.10;0.90;;;;;;;;;;5096251;28;20842;-58
2023/10/08 14:54:03;;;;;;;1.40;1.00;;;;;;;;;;5096519;28;20442;-58
2023/10/08 14:56:32;;;;;;;1.13;0.80;;;;;;;;;;5096476;28;20533;-58
2023/10/08 14:59:00;;;;;;;1.90;0.87;;;;;;;;;;5096451;28;20847;-58
2023/10/08 15:01:27;;;;;;;2.03;1.50;;;;;;;;;;5096304;28;20446;-58
2023/10/08 15:03:54;;;;;;;2.83;2.60;;;;;;;;;;5096215;28;20500;-58
2023/10/08 15:06:23;;;;;;;1.20;1.10;;;;;;;;;;5096096;28;21028;-58
2023/10/08 15:08:52;;;;;;;1.53;1.03;;;;;;;;;;5095862;28;20830;-58
2023/10/08 15:11:19;;;;;;;1.97;1.10;;;;;;;;;;5096144;28;20508;-58
2023/10/08 15:13:46;;;;;;;3.07;1.77;;;;;;;;;;5096082;28;20447;-58
2023/10/08 15:16:13;;;;;;;6.97;5.87;;;;;;;;;;5096405;28;20445;-58
2023/10/08 15:18:42;;;;;;;8.83;6.70;;;;;;;;;;5095879;28;20446;-59
2023/10/08 15:21:10;;;;;;;4.50;3.53;;;;;;;;;;5096065;28;20442;-59